sensor_id;sensor_type;location;lat;lon;timestamp;P1;durP1;ratioP1;P2;durP2;ratioP2
61903;SDS011;47857;52.270;6.804;2022-12-07T00:02:25;8.25;;;4.63;;
61903;SDS011;47857;52.270;6.804;2022-12-07T00:04:50;11.18;;;5.05;;
61903;SDS011;47857;52.270;6.804;2022-12-07T00:07:16;9.90;;;4.95;;
61903;SDS011;47857;52.270;6.804;2022-12-07T00:09:41;11.40;;;4.20;;
61903;SDS011;47857;52.270;6.804;2022-12-07T00:12:06;9.32;;;4.60;;
61903;SDS011;47857;52.270;6.804;2022-12-07T00:14:33;9.93;;;4.82;;
61903;SDS011;47857;52.270;6.804;2022-12-07T00:16:58;10.43;;;4.47;;
61903;SDS011;47857;52.270;6.804;2022-12-07T00:19:24;9.27;;;4.75;;
61903;SDS011;47857;52.270;6.804;2022-12-07T00:21:49;11.00;;;4.90;;
61903;SDS011;47857;52.270;6.804;2022-12-07T00:24:15;11.00;;;4.75;;
61903;SDS011;47857;52.270;6.804;2022-12-07T00:26:40;9.15;;;4.45;;
61903;SDS011;47857;52.270;6.804;2022-12-07T00:29:15;7.72;;;4.32;;
61903;SDS011;47857;52.270;6.804;2022-12-07T00:31:41;7.90;;;4.40;;
61903;SDS011;47857;52.270;6.804;2022-12-07T00:34:07;11.45;;;4.22;;
61903;SDS011;47857;52.270;6.804;2022-12-07T00:36:45;8.07;;;3.90;;
61903;SDS011;47857;52.270;6.804;2022-12-07T00:39:11;9.35;;;4.22;;
61903;SDS011;47857;52.270;6.804;2022-12-07T00:41:36;9.18;;;3.97;;
61903;SDS011;47857;52.270;6.804;2022-12-07T00:44:02;8.63;;;3.80;;
61903;SDS011;47857;52.270;6.804;2022-12-07T00:46:28;7.53;;;4.13;;
61903;SDS011;47857;52.270;6.804;2022-12-07T00:48:54;8.30;;;4.60;;
61903;SDS011;47857;52.270;6.804;2022-12-07T00:51:20;8.32;;;3.90;;
61903;SDS011;47857;52.270;6.804;2022-12-07T00:53:47;6.85;;;3.95;;
61903;SDS011;47857;52.270;6.804;2022-12-07T00:56:14;8.32;;;4.07;;
61903;SDS011;47857;52.270;6.804;2022-12-07T00:58:40;8.98;;;3.85;;
61903;SDS011;47857;52.270;6.804;2022-12-07T01:01:06;7.07;;;3.60;;
61903;SDS011;47857;52.270;6.804;2022-12-07T01:03:33;8.88;;;3.92;;
61903;SDS011;47857;52.270;6.804;2022-12-07T01:05:58;10.52;;;4.22;;
61903;SDS011;47857;52.270;6.804;2022-12-07T01:08:27;8.00;;;3.92;;
61903;SDS011;47857;52.270;6.804;2022-12-07T01:11:00;11.48;;;4.10;;
61903;SDS011;47857;52.270;6.804;2022-12-07T01:13:30;10.90;;;4.68;;
61903;SDS011;47857;52.270;6.804;2022-12-07T01:15:57;9.55;;;3.95;;
61903;SDS011;47857;52.270;6.804;2022-12-07T01:18:25;13.50;;;4.32;;
61903;SDS011;47857;52.270;6.804;2022-12-07T01:21:25;10.32;;;3.78;;
61903;SDS011;47857;52.270;6.804;2022-12-07T01:23:54;7.97;;;3.60;;
61903;SDS011;47857;52.270;6.804;2022-12-07T01:26:21;5.45;;;3.22;;
61903;SDS011;47857;52.270;6.804;2022-12-07T01:28:47;10.27;;;3.78;;
61903;SDS011;47857;52.270;6.804;2022-12-07T01:31:14;9.95;;;3.30;;
61903;SDS011;47857;52.270;6.804;2022-12-07T01:33:42;11.05;;;3.65;;
61903;SDS011;47857;52.270;6.804;2022-12-07T01:36:25;13.48;;;4.03;;
61903;SDS011;47857;52.270;6.804;2022-12-07T01:38:56;10.03;;;3.60;;
61903;SDS011;47857;52.270;6.804;2022-12-07T01:41:24;7.82;;;3.60;;
61903;SDS011;47857;52.270;6.804;2022-12-07T01:46:33;9.45;;;3.00;;
61903;SDS011;47857;52.270;6.804;2022-12-07T01:48:59;8.68;;;3.30;;
61903;SDS011;47857;52.270;6.804;2022-12-07T01:51:25;12.90;;;3.90;;
61903;SDS011;47857;52.270;6.804;2022-12-07T01:53:50;12.45;;;3.28;;
61903;SDS011;47857;52.270;6.804;2022-12-07T01:56:17;12.05;;;3.42;;
61903;SDS011;47857;52.270;6.804;2022-12-07T01:58:44;6.90;;;3.10;;
61903;SDS011;47857;52.270;6.804;2022-12-07T02:01:10;10.27;;;3.08;;
61903;SDS011;47857;52.270;6.804;2022-12-07T02:03:37;11.20;;;3.70;;
61903;SDS011;47857;52.270;6.804;2022-12-07T02:06:05;11.25;;;3.22;;
61903;SDS011;47857;52.270;6.804;2022-12-07T02:08:32;10.75;;;3.22;;
61903;SDS011;47857;52.270;6.804;2022-12-07T02:10:58;10.60;;;3.30;;
61903;SDS011;47857;52.270;6.804;2022-12-07T02:13:28;9.13;;;3.42;;
61903;SDS011;47857;52.270;6.804;2022-12-07T02:29:24;12.18;;;2.92;;
61903;SDS011;47857;52.270;6.804;2022-12-07T02:31:59;12.93;;;2.60;;
61903;SDS011;47857;52.270;6.804;2022-12-07T02:35:00;13.80;;;3.08;;
61903;SDS011;47857;52.270;6.804;2022-12-07T02:40:00;12.70;;;2.72;;
61903;SDS011;47857;52.270;6.804;2022-12-07T02:42:36;11.00;;;2.53;;
61903;SDS011;47857;52.270;6.804;2022-12-07T02:45:05;12.82;;;2.53;;
61903;SDS011;47857;52.270;6.804;2022-12-07T02:47:32;15.18;;;3.00;;
61903;SDS011;47857;52.270;6.804;2022-12-07T02:49:58;9.95;;;2.38;;
61903;SDS011;47857;52.270;6.804;2022-12-07T02:52:24;8.07;;;2.60;;
61903;SDS011;47857;52.270;6.804;2022-12-07T02:54:49;12.23;;;2.42;;
61903;SDS011;47857;52.270;6.804;2022-12-07T03:02:26;13.55;;;2.08;;
61903;SDS011;47857;52.270;6.804;2022-12-07T03:05:03;9.48;;;2.10;;
61903;SDS011;47857;52.270;6.804;2022-12-07T03:10:54;10.80;;;2.38;;
61903;SDS011;47857;52.270;6.804;2022-12-07T03:18:55;9.13;;;1.90;;
61903;SDS011;47857;52.270;6.804;2022-12-07T03:21:25;9.05;;;2.40;;
61903;SDS011;47857;52.270;6.804;2022-12-07T03:23:56;15.63;;;2.72;;
61903;SDS011;47857;52.270;6.804;2022-12-07T03:26:25;11.93;;;2.20;;
61903;SDS011;47857;52.270;6.804;2022-12-07T03:28:56;13.75;;;2.20;;
61903;SDS011;47857;52.270;6.804;2022-12-07T03:31:26;7.85;;;1.90;;
61903;SDS011;47857;52.270;6.804;2022-12-07T03:39:22;10.93;;;2.13;;
61903;SDS011;47857;52.270;6.804;2022-12-07T03:41:52;7.22;;;1.98;;
61903;SDS011;47857;52.270;6.804;2022-12-07T03:44:18;13.35;;;1.98;;
61903;SDS011;47857;52.270;6.804;2022-12-07T03:46:49;10.70;;;2.17;;
61903;SDS011;47857;52.270;6.804;2022-12-07T03:49:27;13.10;;;2.47;;
61903;SDS011;47857;52.270;6.804;2022-12-07T03:54:45;8.52;;;1.70;;
61903;SDS011;47857;52.270;6.804;2022-12-07T03:57:33;12.20;;;2.17;;
61903;SDS011;47857;52.270;6.804;2022-12-07T04:00:00;10.45;;;2.00;;
61903;SDS011;47857;52.270;6.804;2022-12-07T04:02:27;10.48;;;1.83;;
61903;SDS011;47857;52.270;6.804;2022-12-07T04:04:53;10.15;;;1.80;;
61903;SDS011;47857;52.270;6.804;2022-12-07T04:07:20;7.97;;;1.90;;
61903;SDS011;47857;52.270;6.804;2022-12-07T04:09:45;7.65;;;1.83;;
61903;SDS011;47857;52.270;6.804;2022-12-07T04:12:11;13.82;;;2.15;;
61903;SDS011;47857;52.270;6.804;2022-12-07T04:14:36;11.70;;;1.67;;
61903;SDS011;47857;52.270;6.804;2022-12-07T04:17:02;12.00;;;2.20;;
61903;SDS011;47857;52.270;6.804;2022-12-07T04:19:29;13.32;;;1.70;;
61903;SDS011;47857;52.270;6.804;2022-12-07T04:21:56;9.65;;;1.42;;
61903;SDS011;47857;52.270;6.804;2022-12-07T04:24:22;9.15;;;1.27;;
61903;SDS011;47857;52.270;6.804;2022-12-07T04:26:48;12.45;;;1.90;;
61903;SDS011;47857;52.270;6.804;2022-12-07T04:29:14;11.65;;;1.80;;
61903;SDS011;47857;52.270;6.804;2022-12-07T04:31:40;7.95;;;1.40;;
61903;SDS011;47857;52.270;6.804;2022-12-07T04:34:06;12.55;;;1.70;;
61903;SDS011;47857;52.270;6.804;2022-12-07T04:36:32;10.02;;;1.40;;
61903;SDS011;47857;52.270;6.804;2022-12-07T04:38:57;10.40;;;1.83;;
61903;SDS011;47857;52.270;6.804;2022-12-07T04:41:23;9.57;;;1.60;;
61903;SDS011;47857;52.270;6.804;2022-12-07T04:43:55;6.90;;;1.40;;
61903;SDS011;47857;52.270;6.804;2022-12-07T04:46:21;9.88;;;1.52;;
61903;SDS011;47857;52.270;6.804;2022-12-07T04:48:48;9.80;;;1.65;;
61903;SDS011;47857;52.270;6.804;2022-12-07T04:51:15;11.23;;;2.00;;
61903;SDS011;47857;52.270;6.804;2022-12-07T04:53:44;13.25;;;2.10;;
61903;SDS011;47857;52.270;6.804;2022-12-07T04:56:09;13.15;;;2.00;;
61903;SDS011;47857;52.270;6.804;2022-12-07T04:58:35;11.40;;;1.92;;
61903;SDS011;47857;52.270;6.804;2022-12-07T05:01:00;7.18;;;1.45;;
61903;SDS011;47857;52.270;6.804;2022-12-07T05:03:26;8.63;;;1.45;;
61903;SDS011;47857;52.270;6.804;2022-12-07T05:05:51;10.82;;;1.90;;
61903;SDS011;47857;52.270;6.804;2022-12-07T05:08:17;9.57;;;1.58;;
61903;SDS011;47857;52.270;6.804;2022-12-07T05:10:42;7.50;;;1.40;;
61903;SDS011;47857;52.270;6.804;2022-12-07T05:13:08;8.60;;;1.52;;
61903;SDS011;47857;52.270;6.804;2022-12-07T05:15:33;7.55;;;1.25;;
61903;SDS011;47857;52.270;6.804;2022-12-07T05:17:59;8.20;;;1.42;;
61903;SDS011;47857;52.270;6.804;2022-12-07T05:20:25;10.65;;;1.85;;
61903;SDS011;47857;52.270;6.804;2022-12-07T05:22:51;17.83;;;2.10;;
61903;SDS011;47857;52.270;6.804;2022-12-07T05:25:16;11.38;;;1.55;;
61903;SDS011;47857;52.270;6.804;2022-12-07T05:27:42;8.98;;;1.60;;
61903;SDS011;47857;52.270;6.804;2022-12-07T05:30:07;11.20;;;1.50;;
61903;SDS011;47857;52.270;6.804;2022-12-07T05:32:33;10.25;;;1.33;;
61903;SDS011;47857;52.270;6.804;2022-12-07T05:34:59;9.18;;;1.75;;
61903;SDS011;47857;52.270;6.804;2022-12-07T05:37:27;12.60;;;1.73;;
61903;SDS011;47857;52.270;6.804;2022-12-07T05:39:52;8.90;;;1.67;;
61903;SDS011;47857;52.270;6.804;2022-12-07T05:42:18;9.30;;;1.80;;
61903;SDS011;47857;52.270;6.804;2022-12-07T05:44:44;9.38;;;1.90;;
61903;SDS011;47857;52.270;6.804;2022-12-07T05:47:10;10.05;;;1.98;;
61903;SDS011;47857;52.270;6.804;2022-12-07T05:49:37;15.40;;;1.35;;
61903;SDS011;47857;52.270;6.804;2022-12-07T05:52:03;12.50;;;1.85;;
61903;SDS011;47857;52.270;6.804;2022-12-07T05:54:28;11.65;;;1.58;;
61903;SDS011;47857;52.270;6.804;2022-12-07T05:56:54;13.60;;;2.17;;
61903;SDS011;47857;52.270;6.804;2022-12-07T05:59:19;8.75;;;1.60;;
61903;SDS011;47857;52.270;6.804;2022-12-07T06:01:48;8.50;;;1.65;;
61903;SDS011;47857;52.270;6.804;2022-12-07T06:04:25;8.45;;;1.83;;
61903;SDS011;47857;52.270;6.804;2022-12-07T06:06:55;16.52;;;2.25;;
61903;SDS011;47857;52.270;6.804;2022-12-07T06:09:21;12.80;;;2.40;;
61903;SDS011;47857;52.270;6.804;2022-12-07T06:11:47;17.60;;;2.25;;
61903;SDS011;47857;52.270;6.804;2022-12-07T06:16:57;9.13;;;2.00;;
61903;SDS011;47857;52.270;6.804;2022-12-07T06:19:23;8.85;;;1.60;;
61903;SDS011;47857;52.270;6.804;2022-12-07T06:21:49;10.20;;;1.85;;
61903;SDS011;47857;52.270;6.804;2022-12-07T06:24:14;14.27;;;1.98;;
61903;SDS011;47857;52.270;6.804;2022-12-07T06:26:41;12.35;;;1.98;;
61903;SDS011;47857;52.270;6.804;2022-12-07T06:29:07;14.48;;;1.88;;
61903;SDS011;47857;52.270;6.804;2022-12-07T06:31:32;7.68;;;1.60;;
61903;SDS011;47857;52.270;6.804;2022-12-07T06:33:58;11.48;;;1.48;;
61903;SDS011;47857;52.270;6.804;2022-12-07T06:36:25;10.88;;;1.60;;
61903;SDS011;47857;52.270;6.804;2022-12-07T06:38:50;10.35;;;1.40;;
61903;SDS011;47857;52.270;6.804;2022-12-07T06:41:16;11.27;;;1.65;;
61903;SDS011;47857;52.270;6.804;2022-12-07T06:43:41;7.65;;;1.67;;
61903;SDS011;47857;52.270;6.804;2022-12-07T06:46:07;12.07;;;2.03;;
61903;SDS011;47857;52.270;6.804;2022-12-07T06:48:33;9.25;;;1.98;;
61903;SDS011;47857;52.270;6.804;2022-12-07T06:50:58;11.80;;;1.85;;
61903;SDS011;47857;52.270;6.804;2022-12-07T06:53:24;13.95;;;1.80;;
61903;SDS011;47857;52.270;6.804;2022-12-07T06:55:49;7.28;;;1.55;;
61903;SDS011;47857;52.270;6.804;2022-12-07T06:58:15;9.05;;;1.60;;
61903;SDS011;47857;52.270;6.804;2022-12-07T07:00:42;8.00;;;1.25;;
61903;SDS011;47857;52.270;6.804;2022-12-07T07:03:08;9.00;;;1.38;;
61903;SDS011;47857;52.270;6.804;2022-12-07T07:05:33;11.65;;;1.85;;
61903;SDS011;47857;52.270;6.804;2022-12-07T07:07:59;14.25;;;1.65;;
61903;SDS011;47857;52.270;6.804;2022-12-07T07:10:24;10.45;;;1.30;;
61903;SDS011;47857;52.270;6.804;2022-12-07T07:12:50;8.30;;;1.50;;
61903;SDS011;47857;52.270;6.804;2022-12-07T07:15:15;13.30;;;2.03;;
61903;SDS011;47857;52.270;6.804;2022-12-07T07:17:41;12.18;;;1.95;;
61903;SDS011;47857;52.270;6.804;2022-12-07T07:20:06;9.35;;;1.95;;
61903;SDS011;47857;52.270;6.804;2022-12-07T07:22:32;15.20;;;2.40;;
61903;SDS011;47857;52.270;6.804;2022-12-07T07:24:58;11.23;;;1.67;;
61903;SDS011;47857;52.270;6.804;2022-12-07T07:27:23;14.68;;;2.20;;
61903;SDS011;47857;52.270;6.804;2022-12-07T07:29:48;11.13;;;1.63;;
61903;SDS011;47857;52.270;6.804;2022-12-07T07:32:14;10.18;;;1.83;;
61903;SDS011;47857;52.270;6.804;2022-12-07T07:34:39;7.43;;;1.70;;
61903;SDS011;47857;52.270;6.804;2022-12-07T07:37:05;13.88;;;1.92;;
61903;SDS011;47857;52.270;6.804;2022-12-07T07:39:30;16.88;;;1.83;;
61903;SDS011;47857;52.270;6.804;2022-12-07T07:41:56;12.50;;;1.63;;
61903;SDS011;47857;52.270;6.804;2022-12-07T07:44:25;8.20;;;1.45;;
61903;SDS011;47857;52.270;6.804;2022-12-07T07:46:50;15.98;;;2.05;;
61903;SDS011;47857;52.270;6.804;2022-12-07T07:49:16;11.48;;;1.83;;
61903;SDS011;47857;52.270;6.804;2022-12-07T07:51:41;12.32;;;1.95;;
61903;SDS011;47857;52.270;6.804;2022-12-07T07:54:07;17.05;;;6.95;;
61903;SDS011;47857;52.270;6.804;2022-12-07T07:56:32;15.82;;;4.82;;
61903;SDS011;47857;52.270;6.804;2022-12-07T07:58:58;12.60;;;2.40;;
61903;SDS011;47857;52.270;6.804;2022-12-07T08:01:23;10.15;;;1.83;;
61903;SDS011;47857;52.270;6.804;2022-12-07T08:03:49;9.90;;;1.98;;
61903;SDS011;47857;52.270;6.804;2022-12-07T08:06:14;14.20;;;2.20;;
61903;SDS011;47857;52.270;6.804;2022-12-07T08:08:40;10.82;;;1.77;;
61903;SDS011;47857;52.270;6.804;2022-12-07T08:11:06;8.95;;;1.67;;
61903;SDS011;47857;52.270;6.804;2022-12-07T08:13:32;11.63;;;2.10;;
61903;SDS011;47857;52.270;6.804;2022-12-07T08:15:58;11.63;;;2.30;;
61903;SDS011;47857;52.270;6.804;2022-12-07T08:18:24;13.55;;;2.55;;
61903;SDS011;47857;52.270;6.804;2022-12-07T08:20:49;11.52;;;2.47;;
61903;SDS011;47857;52.270;6.804;2022-12-07T08:23:15;10.75;;;2.00;;
61903;SDS011;47857;52.270;6.804;2022-12-07T08:25:40;10.52;;;1.90;;
61903;SDS011;47857;52.270;6.804;2022-12-07T08:28:06;8.27;;;1.73;;
61903;SDS011;47857;52.270;6.804;2022-12-07T08:30:32;11.50;;;1.90;;
61903;SDS011;47857;52.270;6.804;2022-12-07T08:32:58;10.82;;;2.38;;
61903;SDS011;47857;52.270;6.804;2022-12-07T08:35:23;9.18;;;2.35;;
61903;SDS011;47857;52.270;6.804;2022-12-07T08:37:49;11.48;;;2.42;;
61903;SDS011;47857;52.270;6.804;2022-12-07T08:40:15;8.10;;;1.63;;
61903;SDS011;47857;52.270;6.804;2022-12-07T08:42:43;14.75;;;2.42;;
61903;SDS011;47857;52.270;6.804;2022-12-07T08:45:13;18.40;;;1.92;;
61903;SDS011;47857;52.270;6.804;2022-12-07T08:47:44;10.27;;;1.90;;
61903;SDS011;47857;52.270;6.804;2022-12-07T08:50:13;6.85;;;1.63;;
61903;SDS011;47857;52.270;6.804;2022-12-07T08:52:39;10.30;;;1.80;;
61903;SDS011;47857;52.270;6.804;2022-12-07T08:55:06;8.88;;;1.83;;
61903;SDS011;47857;52.270;6.804;2022-12-07T08:57:33;10.52;;;2.08;;
61903;SDS011;47857;52.270;6.804;2022-12-07T09:00:00;9.75;;;1.90;;
61903;SDS011;47857;52.270;6.804;2022-12-07T09:02:26;11.85;;;1.83;;
61903;SDS011;47857;52.270;6.804;2022-12-07T09:04:52;9.82;;;2.08;;
61903;SDS011;47857;52.270;6.804;2022-12-07T09:07:17;7.18;;;1.60;;
61903;SDS011;47857;52.270;6.804;2022-12-07T09:09:43;9.65;;;1.60;;
61903;SDS011;47857;52.270;6.804;2022-12-07T09:12:08;9.75;;;1.90;;
61903;SDS011;47857;52.270;6.804;2022-12-07T09:14:35;14.80;;;2.30;;
61903;SDS011;47857;52.270;6.804;2022-12-07T09:17:07;15.98;;;4.50;;
61903;SDS011;47857;52.270;6.804;2022-12-07T09:19:34;15.05;;;2.80;;
61903;SDS011;47857;52.270;6.804;2022-12-07T09:21:59;12.07;;;1.65;;
61903;SDS011;47857;52.270;6.804;2022-12-07T09:24:25;10.23;;;1.40;;
61903;SDS011;47857;52.270;6.804;2022-12-07T09:26:50;9.13;;;1.63;;
61903;SDS011;47857;52.270;6.804;2022-12-07T09:29:16;12.43;;;1.70;;
61903;SDS011;47857;52.270;6.804;2022-12-07T09:31:41;10.13;;;1.80;;
61903;SDS011;47857;52.270;6.804;2022-12-07T09:34:07;9.27;;;1.90;;
61903;SDS011;47857;52.270;6.804;2022-12-07T09:36:32;10.57;;;1.70;;
61903;SDS011;47857;52.270;6.804;2022-12-07T09:38:58;13.65;;;1.92;;
61903;SDS011;47857;52.270;6.804;2022-12-07T09:41:24;11.88;;;1.65;;
61903;SDS011;47857;52.270;6.804;2022-12-07T09:43:51;10.23;;;1.73;;
61903;SDS011;47857;52.270;6.804;2022-12-07T09:46:18;11.02;;;2.05;;
61903;SDS011;47857;52.270;6.804;2022-12-07T09:48:45;10.60;;;1.70;;
61903;SDS011;47857;52.270;6.804;2022-12-07T09:51:16;7.32;;;1.70;;
61903;SDS011;47857;52.270;6.804;2022-12-07T09:53:43;10.80;;;2.53;;
61903;SDS011;47857;52.270;6.804;2022-12-07T09:56:13;13.07;;;1.90;;
61903;SDS011;47857;52.270;6.804;2022-12-07T09:58:40;11.38;;;1.75;;
61903;SDS011;47857;52.270;6.804;2022-12-07T10:01:10;14.52;;;1.95;;
61903;SDS011;47857;52.270;6.804;2022-12-07T10:03:43;11.13;;;2.30;;
61903;SDS011;47857;52.270;6.804;2022-12-07T10:06:13;9.00;;;1.70;;
61903;SDS011;47857;52.270;6.804;2022-12-07T10:08:39;10.75;;;1.63;;
61903;SDS011;47857;52.270;6.804;2022-12-07T10:11:06;11.73;;;1.92;;
61903;SDS011;47857;52.270;6.804;2022-12-07T10:13:39;12.98;;;1.98;;
61903;SDS011;47857;52.270;6.804;2022-12-07T10:18:49;10.30;;;1.63;;
61903;SDS011;47857;52.270;6.804;2022-12-07T10:21:16;13.25;;;1.98;;
61903;SDS011;47857;52.270;6.804;2022-12-07T10:26:31;6.53;;;1.70;;
61903;SDS011;47857;52.270;6.804;2022-12-07T10:31:43;7.03;;;1.60;;
61903;SDS011;47857;52.270;6.804;2022-12-07T10:34:21;9.57;;;2.00;;
61903;SDS011;47857;52.270;6.804;2022-12-07T10:36:50;8.85;;;1.83;;
61903;SDS011;47857;52.270;6.804;2022-12-07T10:41:52;11.75;;;1.77;;
61903;SDS011;47857;52.270;6.804;2022-12-07T10:44:22;11.88;;;1.80;;
61903;SDS011;47857;52.270;6.804;2022-12-07T10:47:04;5.85;;;1.20;;
61903;SDS011;47857;52.270;6.804;2022-12-07T10:49:43;7.43;;;1.40;;
61903;SDS011;47857;52.270;6.804;2022-12-07T10:57:32;8.60;;;1.83;;
61903;SDS011;47857;52.270;6.804;2022-12-07T11:11:00;9.75;;;2.42;;
61903;SDS011;47857;52.270;6.804;2022-12-07T11:13:43;11.80;;;4.28;;
61903;SDS011;47857;52.270;6.804;2022-12-07T11:22:07;17.25;;;1.63;;
61903;SDS011;47857;52.270;6.804;2022-12-07T11:30:21;9.07;;;1.17;;
61903;SDS011;47857;52.270;6.804;2022-12-07T11:32:55;12.85;;;1.50;;
61903;SDS011;47857;52.270;6.804;2022-12-07T11:38:16;8.40;;;2.08;;
61903;SDS011;47857;52.270;6.804;2022-12-07T11:40:43;9.30;;;1.50;;
61903;SDS011;47857;52.270;6.804;2022-12-07T11:46:02;10.00;;;1.48;;
61903;SDS011;47857;52.270;6.804;2022-12-07T11:51:10;10.50;;;1.42;;
61903;SDS011;47857;52.270;6.804;2022-12-07T11:56:34;8.93;;;1.15;;
61903;SDS011;47857;52.270;6.804;2022-12-07T12:01:57;10.50;;;1.70;;
61903;SDS011;47857;52.270;6.804;2022-12-07T12:04:27;9.38;;;1.52;;
61903;SDS011;47857;52.270;6.804;2022-12-07T12:06:56;7.50;;;1.20;;
61903;SDS011;47857;52.270;6.804;2022-12-07T12:09:24;7.07;;;1.50;;
61903;SDS011;47857;52.270;6.804;2022-12-07T12:12:06;6.93;;;1.50;;
61903;SDS011;47857;52.270;6.804;2022-12-07T12:14:55;8.18;;;1.75;;
61903;SDS011;47857;52.270;6.804;2022-12-07T12:23:11;9.43;;;1.73;;
61903;SDS011;47857;52.270;6.804;2022-12-07T12:26:01;9.75;;;2.13;;
61903;SDS011;47857;52.270;6.804;2022-12-07T12:31:28;9.77;;;1.58;;
61903;SDS011;47857;52.270;6.804;2022-12-07T12:33:58;7.60;;;1.05;;
61903;SDS011;47857;52.270;6.804;2022-12-07T12:49:36;8.90;;;1.08;;
61903;SDS011;47857;52.270;6.804;2022-12-07T12:54:35;6.38;;;1.40;;
61903;SDS011;47857;52.270;6.804;2022-12-07T12:57:15;6.47;;;1.40;;
61903;SDS011;47857;52.270;6.804;2022-12-07T13:02:23;8.18;;;1.67;;
61903;SDS011;47857;52.270;6.804;2022-12-07T13:13:01;8.68;;;1.70;;
61903;SDS011;47857;52.270;6.804;2022-12-07T13:18:03;8.80;;;1.40;;
61903;SDS011;47857;52.270;6.804;2022-12-07T13:20:44;6.20;;;1.52;;
61903;SDS011;47857;52.270;6.804;2022-12-07T13:29:05;14.43;;;3.30;;
61903;SDS011;47857;52.270;6.804;2022-12-07T13:34:05;10.00;;;1.40;;
61903;SDS011;47857;52.270;6.804;2022-12-07T13:36:51;9.02;;;1.67;;
61903;SDS011;47857;52.270;6.804;2022-12-07T13:39:18;8.57;;;1.77;;
61903;SDS011;47857;52.270;6.804;2022-12-07T13:41:51;8.07;;;1.38;;
61903;SDS011;47857;52.270;6.804;2022-12-07T13:44:25;7.22;;;1.73;;
61903;SDS011;47857;52.270;6.804;2022-12-07T13:49:30;12.13;;;1.40;;
61903;SDS011;47857;52.270;6.804;2022-12-07T13:55:08;6.50;;;1.48;;
61903;SDS011;47857;52.270;6.804;2022-12-07T13:57:39;12.65;;;1.45;;
61903;SDS011;47857;52.270;6.804;2022-12-07T14:00:06;12.55;;;2.00;;
61903;SDS011;47857;52.270;6.804;2022-12-07T14:05:39;15.35;;;2.00;;
61903;SDS011;47857;52.270;6.804;2022-12-07T14:10:36;8.85;;;2.20;;
61903;SDS011;47857;52.270;6.804;2022-12-07T14:13:22;9.43;;;2.00;;
61903;SDS011;47857;52.270;6.804;2022-12-07T14:15:52;11.60;;;2.20;;
61903;SDS011;47857;52.270;6.804;2022-12-07T14:18:37;22.05;;;2.55;;
61903;SDS011;47857;52.270;6.804;2022-12-07T14:23:36;9.02;;;1.80;;
61903;SDS011;47857;52.270;6.804;2022-12-07T14:26:07;13.48;;;1.75;;
61903;SDS011;47857;52.270;6.804;2022-12-07T14:28:36;8.02;;;2.03;;
61903;SDS011;47857;52.270;6.804;2022-12-07T14:31:02;12.43;;;2.00;;
61903;SDS011;47857;52.270;6.804;2022-12-07T14:33:28;7.28;;;1.92;;
61903;SDS011;47857;52.270;6.804;2022-12-07T14:35:55;12.02;;;2.60;;
61903;SDS011;47857;52.270;6.804;2022-12-07T14:38:23;16.17;;;2.38;;
61903;SDS011;47857;52.270;6.804;2022-12-07T14:40:49;10.40;;;2.25;;
61903;SDS011;47857;52.270;6.804;2022-12-07T14:43:16;10.55;;;2.22;;
61903;SDS011;47857;52.270;6.804;2022-12-07T14:45:42;7.63;;;1.70;;
61903;SDS011;47857;52.270;6.804;2022-12-07T14:48:10;11.65;;;1.70;;
61903;SDS011;47857;52.270;6.804;2022-12-07T14:50:38;9.77;;;2.08;;
61903;SDS011;47857;52.270;6.804;2022-12-07T14:53:14;12.68;;;2.17;;
61903;SDS011;47857;52.270;6.804;2022-12-07T14:55:40;7.22;;;1.27;;
61903;SDS011;47857;52.270;6.804;2022-12-07T14:58:06;7.85;;;1.60;;
61903;SDS011;47857;52.270;6.804;2022-12-07T15:00:37;8.63;;;1.60;;
61903;SDS011;47857;52.270;6.804;2022-12-07T15:03:03;8.00;;;1.50;;
61903;SDS011;47857;52.270;6.804;2022-12-07T15:05:28;11.63;;;1.40;;
61903;SDS011;47857;52.270;6.804;2022-12-07T15:07:54;7.72;;;1.50;;
61903;SDS011;47857;52.270;6.804;2022-12-07T15:10:23;11.00;;;1.27;;
61903;SDS011;47857;52.270;6.804;2022-12-07T15:12:55;8.75;;;1.55;;
61903;SDS011;47857;52.270;6.804;2022-12-07T15:15:41;11.52;;;1.75;;
61903;SDS011;47857;52.270;6.804;2022-12-07T15:18:06;12.27;;;1.88;;
61903;SDS011;47857;52.270;6.804;2022-12-07T15:20:32;7.50;;;1.73;;
61903;SDS011;47857;52.270;6.804;2022-12-07T15:22:57;7.70;;;1.38;;
61903;SDS011;47857;52.270;6.804;2022-12-07T15:25:23;12.07;;;1.90;;
61903;SDS011;47857;52.270;6.804;2022-12-07T15:27:48;8.73;;;1.38;;
61903;SDS011;47857;52.270;6.804;2022-12-07T15:30:14;7.85;;;1.15;;
61903;SDS011;47857;52.270;6.804;2022-12-07T15:32:39;11.98;;;2.85;;
61903;SDS011;47857;52.270;6.804;2022-12-07T15:35:05;11.68;;;1.80;;
61903;SDS011;47857;52.270;6.804;2022-12-07T15:37:30;13.57;;;2.30;;
61903;SDS011;47857;52.270;6.804;2022-12-07T15:39:56;9.93;;;2.47;;
61903;SDS011;47857;52.270;6.804;2022-12-07T15:42:21;14.32;;;2.00;;
61903;SDS011;47857;52.270;6.804;2022-12-07T15:44:47;9.32;;;1.90;;
61903;SDS011;47857;52.270;6.804;2022-12-07T15:47:49;10.98;;;1.98;;
61903;SDS011;47857;52.270;6.804;2022-12-07T15:50:15;11.70;;;1.83;;
61903;SDS011;47857;52.270;6.804;2022-12-07T15:52:41;14.27;;;2.40;;
61903;SDS011;47857;52.270;6.804;2022-12-07T15:55:07;5.55;;;2.13;;
61903;SDS011;47857;52.270;6.804;2022-12-07T15:57:34;12.80;;;2.30;;
61903;SDS011;47857;52.270;6.804;2022-12-07T16:00:02;13.43;;;2.05;;
61903;SDS011;47857;52.270;6.804;2022-12-07T16:02:31;10.52;;;2.10;;
61903;SDS011;47857;52.270;6.804;2022-12-07T16:04:57;9.95;;;1.90;;
61903;SDS011;47857;52.270;6.804;2022-12-07T16:07:22;10.35;;;2.20;;
61903;SDS011;47857;52.270;6.804;2022-12-07T16:09:48;9.57;;;2.40;;
61903;SDS011;47857;52.270;6.804;2022-12-07T16:12:14;10.32;;;2.08;;
61903;SDS011;47857;52.270;6.804;2022-12-07T16:14:40;11.77;;;2.65;;
61903;SDS011;47857;52.270;6.804;2022-12-07T16:17:06;10.85;;;2.30;;
61903;SDS011;47857;52.270;6.804;2022-12-07T16:19:32;11.63;;;2.70;;
61903;SDS011;47857;52.270;6.804;2022-12-07T16:21:58;7.40;;;2.15;;
61903;SDS011;47857;52.270;6.804;2022-12-07T16:24:24;9.65;;;2.50;;
61903;SDS011;47857;52.270;6.804;2022-12-07T16:26:50;9.02;;;2.80;;
61903;SDS011;47857;52.270;6.804;2022-12-07T16:29:16;18.67;;;3.10;;
61903;SDS011;47857;52.270;6.804;2022-12-07T16:31:42;8.88;;;2.80;;
61903;SDS011;47857;52.270;6.804;2022-12-07T16:34:08;13.93;;;3.35;;
61903;SDS011;47857;52.270;6.804;2022-12-07T16:36:34;13.75;;;3.00;;
61903;SDS011;47857;52.270;6.804;2022-12-07T16:39:00;14.60;;;4.68;;
61903;SDS011;47857;52.270;6.804;2022-12-07T16:41:26;10.98;;;3.80;;
61903;SDS011;47857;52.270;6.804;2022-12-07T16:43:51;12.75;;;3.72;;
61903;SDS011;47857;52.270;6.804;2022-12-07T16:46:17;13.57;;;4.70;;
61903;SDS011;47857;52.270;6.804;2022-12-07T16:48:42;31.40;;;13.55;;
61903;SDS011;47857;52.270;6.804;2022-12-07T16:51:09;31.80;;;16.48;;
61903;SDS011;47857;52.270;6.804;2022-12-07T16:53:36;15.77;;;6.72;;
61903;SDS011;47857;52.270;6.804;2022-12-07T16:56:02;15.38;;;5.40;;
61903;SDS011;47857;52.270;6.804;2022-12-07T16:58:29;12.07;;;4.57;;
61903;SDS011;47857;52.270;6.804;2022-12-07T17:00:55;10.02;;;4.00;;
61903;SDS011;47857;52.270;6.804;2022-12-07T17:03:21;16.42;;;4.45;;
61903;SDS011;47857;52.270;6.804;2022-12-07T17:05:46;13.65;;;4.25;;
61903;SDS011;47857;52.270;6.804;2022-12-07T17:08:12;13.98;;;4.20;;
61903;SDS011;47857;52.270;6.804;2022-12-07T17:10:39;12.52;;;3.92;;
61903;SDS011;47857;52.270;6.804;2022-12-07T17:13:07;14.38;;;3.72;;
61903;SDS011;47857;52.270;6.804;2022-12-07T17:15:58;12.52;;;3.30;;
61903;SDS011;47857;52.270;6.804;2022-12-07T17:18:29;13.10;;;3.17;;
61903;SDS011;47857;52.270;6.804;2022-12-07T17:21:01;13.18;;;3.25;;
61903;SDS011;47857;52.270;6.804;2022-12-07T17:23:28;12.88;;;3.00;;